createdAt,value
2019-05-25T00:01:34.242Z,12.07
2019-05-25T00:04:04.920Z,11.48
2019-05-25T00:06:37.201Z,12.65
2019-05-25T00:09:08.756Z,13.18
2019-05-25T00:11:41.682Z,13.32
2019-05-25T00:14:15.198Z,12.90
2019-05-25T00:16:45.795Z,12.75
2019-05-25T00:19:16.519Z,13.18
2019-05-25T00:21:47.146Z,14.30
2019-05-25T00:24:17.715Z,12.90
2019-05-25T00:26:48.453Z,12.98
2019-05-25T00:29:20.152Z,14.03
2019-05-25T00:31:51.096Z,13.25
2019-05-25T00:34:22.058Z,10.93
2019-05-25T00:36:52.929Z,10.05
2019-05-25T00:39:23.649Z,9.55
2019-05-25T00:41:56.240Z,8.93
2019-05-25T00:44:26.822Z,8.93
2019-05-25T00:46:57.425Z,8.93
2019-05-25T00:49:29.087Z,7.65
2019-05-25T00:51:59.865Z,7.37
2019-05-25T00:54:30.722Z,5.42
2019-05-25T00:57:01.543Z,5.83
2019-05-25T00:59:32.216Z,5.80
2019-05-25T01:02:02.926Z,6.03
2019-05-25T01:04:33.478Z,5.28
2019-05-25T01:07:04.232Z,5.30
2019-05-25T01:09:34.719Z,4.55
2019-05-25T01:12:05.309Z,4.22
2019-05-25T01:14:35.870Z,4.45
2019-05-25T01:17:06.553Z,3.85
2019-05-25T01:19:37.404Z,4.20
2019-05-25T01:22:08.165Z,3.15
2019-05-25T01:24:44.177Z,3.55
2019-05-25T01:27:11.194Z,3.67
2019-05-25T01:29:41.740Z,3.67
2019-05-25T01:32:12.529Z,4.10
2019-05-25T01:34:44.669Z,3.42
2019-05-25T01:37:15.315Z,3.60
2019-05-25T01:39:45.973Z,3.60
2019-05-25T01:42:16.740Z,3.35
2019-05-25T01:44:47.348Z,3.20
2019-05-25T01:47:18.267Z,2.80
2019-05-25T01:49:48.845Z,2.92
2019-05-25T01:52:19.708Z,3.00
2019-05-25T01:54:59.455Z,3.60
2019-05-25T01:57:22.524Z,2.80
2019-05-25T01:59:53.374Z,2.95
2019-05-25T02:02:25.457Z,3.20
2019-05-25T02:04:56.657Z,2.30
2019-05-25T02:07:27.542Z,2.72
2019-05-25T02:09:59.241Z,2.55
2019-05-25T02:12:30.931Z,2.80
2019-05-25T02:15:02.054Z,2.40
2019-05-25T02:17:32.683Z,2.92
2019-05-25T02:20:03.371Z,2.83
2019-05-25T02:22:34.288Z,2.87
2019-05-25T02:25:17.087Z,2.80
2019-05-25T02:27:39.955Z,3.17
2019-05-25T02:30:11.915Z,2.85
2019-05-25T02:32:42.827Z,2.83
2019-05-25T02:35:24.627Z,2.83
2019-05-25T02:37:55.292Z,2.22
2019-05-25T02:40:26.159Z,2.58
2019-05-25T02:42:56.815Z,2.33
2019-05-25T02:45:27.497Z,2.47
2019-05-25T02:47:58.438Z,2.58
2019-05-25T02:50:29.271Z,2.75
2019-05-25T02:52:59.854Z,2.70
2019-05-25T02:55:34.543Z,2.47
2019-05-25T02:58:02.822Z,2.25
2019-05-25T03:00:34.150Z,2.60
2019-05-25T03:03:06.926Z,1.92
2019-05-25T03:05:37.891Z,2.17
2019-05-25T03:08:08.846Z,2.00
2019-05-25T03:10:40.557Z,1.85
2019-05-25T03:13:11.235Z,1.80
2019-05-25T03:15:42.094Z,1.60
2019-05-25T03:18:12.933Z,1.90
2019-05-25T03:20:43.841Z,1.70
2019-05-25T03:23:14.675Z,1.77
2019-05-25T03:25:49.977Z,1.90
2019-05-25T03:28:28.901Z,1.85
2019-05-25T03:30:59.781Z,2.30
2019-05-25T03:33:30.594Z,1.92
2019-05-25T03:36:01.303Z,2.10
2019-05-25T03:38:32.082Z,2.05
2019-05-25T03:41:02.817Z,1.70
2019-05-25T03:43:33.472Z,2.05
2019-05-25T03:46:07.379Z,2.20
2019-05-25T03:48:38.198Z,2.20
2019-05-25T03:51:09.027Z,1.85
2019-05-25T03:53:39.902Z,2.10
2019-05-25T03:56:10.605Z,1.90
2019-05-25T03:58:41.166Z,1.85
2019-05-25T04:01:12.150Z,2.52
2019-05-25T04:03:44.200Z,2.20
2019-05-25T04:06:15.813Z,2.40
2019-05-25T04:08:46.925Z,2.67
2019-05-25T04:11:17.532Z,2.47
2019-05-25T04:13:49.603Z,2.60
2019-05-25T04:16:20.776Z,2.52
2019-05-25T04:21:21.529Z,2.50
2019-05-25T04:23:52.313Z,2.65
2019-05-25T04:26:23.242Z,2.70
2019-05-25T04:28:53.845Z,2.50
2019-05-25T04:31:26.145Z,2.90
2019-05-25T04:33:56.932Z,2.80
2019-05-25T04:36:27.583Z,3.27
2019-05-25T04:38:58.381Z,2.90
2019-05-25T04:41:29.165Z,2.90
2019-05-25T04:44:00.032Z,2.98
2019-05-25T04:46:31.034Z,3.00
2019-05-25T04:49:01.691Z,3.27
2019-05-25T04:51:32.383Z,3.33
2019-05-25T04:54:02.969Z,3.27
2019-05-25T04:56:39.527Z,3.60
2019-05-25T04:59:06.857Z,4.10
2019-05-25T05:01:37.639Z,3.08
2019-05-25T05:04:09.908Z,3.50
2019-05-25T05:06:40.839Z,3.83
2019-05-25T05:09:11.985Z,3.60
2019-05-25T05:11:42.734Z,3.83
2019-05-25T05:14:13.769Z,3.60
2019-05-25T05:16:46.233Z,4.00
2019-05-25T05:19:20.044Z,4.65
2019-05-25T05:21:50.745Z,3.65
2019-05-25T05:24:21.490Z,4.05
2019-05-25T05:26:55.913Z,4.50
2019-05-25T05:29:24.861Z,4.20
2019-05-25T05:31:56.544Z,4.20
2019-05-25T05:34:27.232Z,4.67
2019-05-25T05:36:58.561Z,4.50
2019-05-25T05:39:30.028Z,5.60
2019-05-25T05:42:03.131Z,4.55
2019-05-25T05:44:35.495Z,5.03
2019-05-25T05:47:10.212Z,5.60
2019-05-25T05:49:40.890Z,5.75
2019-05-25T05:52:14.163Z,5.37
2019-05-25T05:54:48.475Z,5.67
2019-05-25T05:57:19.057Z,6.00
2019-05-25T05:59:49.776Z,5.75
2019-05-25T06:02:20.472Z,5.97
2019-05-25T06:04:53.110Z,6.03
2019-05-25T06:07:26.885Z,6.35
2019-05-25T06:09:56.104Z,6.28
2019-05-25T06:12:28.828Z,6.00
2019-05-25T06:14:59.686Z,5.78
2019-05-25T06:17:30.273Z,7.30
2019-05-25T06:20:02.652Z,7.87
2019-05-25T06:22:33.415Z,8.13
2019-05-25T06:25:04.271Z,8.70
2019-05-25T06:27:34.976Z,9.10
2019-05-25T06:30:10.450Z,9.08
2019-05-25T06:32:42.205Z,10.35
2019-05-25T06:35:13.159Z,11.08
2019-05-25T06:37:43.841Z,10.00
2019-05-25T06:40:14.840Z,10.75
2019-05-25T06:42:45.827Z,12.07
2019-05-25T06:45:16.748Z,11.08
2019-05-25T06:47:47.657Z,11.95
2019-05-25T06:50:18.965Z,11.65
2019-05-25T06:55:19.207Z,11.40
2019-05-25T06:57:49.848Z,13.38
2019-05-25T07:00:23.208Z,12.75
2019-05-25T07:02:54.696Z,13.05
2019-05-25T07:05:25.437Z,12.58
2019-05-25T07:07:56.162Z,12.60
2019-05-25T07:10:26.929Z,13.93
2019-05-25T07:12:59.071Z,13.00
2019-05-25T07:15:29.646Z,13.70
2019-05-25T07:18:00.298Z,12.37
2019-05-25T07:20:31.098Z,13.48
2019-05-25T07:23:01.827Z,13.58
2019-05-25T07:25:34.196Z,12.58
2019-05-25T07:28:04.823Z,13.10
2019-05-25T07:30:35.399Z,12.50
2019-05-25T07:33:06.581Z,10.58
2019-05-25T07:35:37.381Z,12.15
2019-05-25T07:38:08.262Z,12.45
2019-05-25T07:40:38.869Z,11.78
2019-05-25T07:43:09.530Z,11.78
2019-05-25T07:45:40.744Z,11.28
2019-05-25T07:48:11.433Z,10.85
2019-05-25T07:50:42.306Z,11.73
2019-05-25T07:53:12.945Z,11.00
2019-05-25T07:55:43.703Z,11.33
2019-05-25T07:58:18.051Z,11.78
2019-05-25T08:00:46.634Z,11.88
2019-05-25T08:03:17.169Z,11.50
2019-05-25T08:05:47.948Z,13.08
2019-05-25T08:08:18.690Z,12.07
2019-05-25T08:10:51.050Z,13.15
2019-05-25T08:13:21.720Z,11.55
2019-05-25T08:15:52.421Z,12.93
2019-05-25T08:18:24.160Z,12.60
2019-05-25T08:20:54.803Z,12.60
2019-05-25T08:23:25.408Z,12.73
2019-05-25T08:25:56.071Z,12.85
2019-05-25T08:28:32.643Z,12.90
2019-05-25T08:31:01.421Z,13.38
2019-05-25T08:33:32.649Z,12.90
2019-05-25T08:38:34.397Z,13.45
2019-05-25T08:41:05.188Z,13.15
2019-05-25T08:43:36.952Z,12.98
2019-05-25T08:46:09.012Z,13.10
2019-05-25T08:48:39.646Z,12.40
2019-05-25T08:51:10.406Z,12.88
2019-05-25T08:56:12.834Z,13.20
2019-05-25T08:58:49.078Z,12.55
2019-05-25T09:01:16.061Z,13.28
2019-05-25T09:03:46.735Z,12.93
2019-05-25T09:06:17.432Z,14.07
2019-05-25T09:08:48.124Z,12.35
2019-05-25T09:11:18.925Z,12.15
2019-05-25T09:13:49.495Z,12.15
2019-05-25T09:16:21.851Z,12.20
2019-05-25T09:18:53.426Z,11.35
2019-05-25T09:21:24.110Z,10.98
2019-05-25T09:23:57.795Z,10.70
2019-05-25T09:26:30.121Z,8.78
2019-05-25T09:29:04.434Z,8.20
2019-05-25T09:31:33.499Z,8.90
2019-05-25T09:34:04.359Z,8.65
2019-05-25T09:36:35.169Z,8.98
2019-05-25T09:39:17.463Z,8.55
2019-05-25T09:41:48.161Z,8.13
2019-05-25T09:44:19.106Z,8.58
2019-05-25T09:46:51.658Z,8.45
2019-05-25T09:49:22.334Z,7.70
2019-05-25T09:51:53.168Z,7.28
2019-05-25T09:54:23.746Z,6.58
2019-05-25T09:56:54.305Z,7.22
2019-05-25T09:59:25.011Z,6.90
2019-05-25T10:01:56.822Z,6.87
2019-05-25T10:04:27.586Z,7.72
2019-05-25T10:06:59.042Z,6.92
2019-05-25T10:09:29.945Z,6.80
2019-05-25T10:12:00.844Z,6.80
2019-05-25T10:14:31.497Z,6.33
2019-05-25T10:17:02.164Z,6.17
2019-05-25T10:19:32.807Z,5.92
2019-05-25T10:22:03.409Z,5.90
2019-05-25T10:24:33.917Z,5.83
2019-05-25T10:27:04.934Z,5.75
2019-05-25T10:29:37.816Z,5.42
2019-05-25T10:32:08.758Z,5.70
2019-05-25T10:34:39.470Z,5.70
2019-05-25T10:37:10.694Z,5.53
2019-05-25T10:39:41.396Z,6.15
2019-05-25T10:42:12.055Z,5.90
2019-05-25T10:44:42.750Z,6.00
2019-05-25T10:47:13.586Z,5.33
2019-05-25T10:49:44.402Z,5.10
2019-05-25T10:52:15.090Z,5.30
2019-05-25T10:54:47.404Z,5.22
2019-05-25T10:57:18.406Z,4.47
2019-05-25T10:59:52.843Z,5.47
2019-05-25T11:02:21.782Z,5.62
2019-05-25T11:04:53.071Z,5.28
2019-05-25T11:07:23.753Z,5.03
2019-05-25T11:09:54.684Z,5.28
2019-05-25T11:14:56.877Z,5.10
2019-05-25T11:17:27.704Z,4.70
2019-05-25T11:19:58.464Z,3.65
2019-05-25T11:22:29.992Z,3.62
2019-05-25T11:25:00.622Z,4.05
2019-05-25T11:27:31.377Z,3.72
2019-05-25T11:30:08.975Z,3.77
2019-05-25T11:32:34.226Z,4.42
2019-05-25T11:35:05.039Z,4.35
2019-05-25T11:37:35.691Z,4.37
2019-05-25T11:40:08.074Z,4.30
2019-05-25T11:42:38.639Z,3.95
2019-05-25T11:45:10.146Z,4.00
2019-05-25T11:47:41.063Z,3.90
2019-05-25T11:50:12.159Z,3.62
2019-05-25T11:55:12.709Z,2.50
2019-05-25T11:57:43.409Z,2.00
2019-05-25T12:00:24.493Z,2.75
2019-05-25T12:02:47.243Z,2.52
2019-05-25T12:05:17.848Z,2.40
2019-05-25T12:07:48.469Z,1.87
2019-05-25T12:10:19.231Z,2.20
2019-05-25T12:12:49.922Z,2.22
2019-05-25T12:15:20.620Z,2.75
2019-05-25T12:17:51.350Z,2.27
2019-05-25T12:20:22.140Z,2.27
2019-05-25T12:22:52.855Z,2.10
2019-05-25T12:25:23.615Z,1.90
2019-05-25T12:27:54.329Z,2.33
2019-05-25T12:30:39.607Z,1.95
2019-05-25T12:32:57.462Z,1.60
2019-05-25T12:35:28.098Z,1.70
2019-05-25T12:38:01.640Z,1.75
2019-05-25T12:40:32.526Z,2.00
2019-05-25T12:43:04.144Z,2.42
2019-05-25T12:45:34.881Z,2.12
2019-05-25T12:48:06.854Z,2.12
2019-05-25T12:50:40.439Z,1.50
2019-05-25T12:53:10.991Z,1.65
2019-05-25T12:55:41.569Z,1.77
2019-05-25T12:58:12.193Z,1.45
2019-05-25T13:00:55.183Z,1.50
2019-05-25T13:03:15.006Z,1.60
2019-05-25T13:05:45.553Z,1.87
2019-05-25T13:08:16.137Z,1.75
2019-05-25T13:10:46.766Z,1.60
2019-05-25T13:13:17.402Z,1.50
2019-05-25T13:15:48.181Z,1.45
2019-05-25T13:18:19.653Z,1.60
2019-05-25T13:23:19.580Z,2.15
2019-05-25T13:25:50.194Z,1.57
2019-05-25T13:28:20.639Z,1.42
2019-05-25T13:30:51.245Z,1.82
2019-05-25T13:33:21.816Z,1.37
2019-05-25T13:35:52.385Z,1.57
2019-05-25T13:38:22.982Z,1.90
2019-05-25T13:40:53.586Z,1.27
2019-05-25T13:43:24.288Z,1.70
2019-05-25T13:45:54.930Z,1.40
2019-05-25T13:48:25.636Z,1.42
2019-05-25T13:50:56.253Z,1.50
2019-05-25T13:53:26.859Z,1.47
2019-05-25T13:55:57.540Z,1.37
2019-05-25T13:58:29.475Z,1.57
2019-05-25T14:01:00.092Z,1.40
2019-05-25T14:03:30.806Z,1.57
2019-05-25T14:06:01.372Z,1.40
2019-05-25T14:08:32.079Z,1.32
2019-05-25T14:11:02.770Z,1.30
2019-05-25T14:13:33.453Z,1.50
2019-05-25T14:16:07.133Z,1.37
2019-05-25T14:18:37.942Z,1.40
2019-05-25T14:21:08.776Z,1.67
2019-05-25T14:26:11.045Z,1.80
2019-05-25T14:28:41.756Z,1.30
2019-05-25T14:31:12.902Z,1.57
2019-05-25T14:33:44.478Z,1.40
2019-05-25T14:36:15.128Z,1.45
2019-05-25T14:38:45.778Z,1.30
2019-05-25T14:41:16.666Z,1.22
2019-05-25T14:46:27.718Z,1.10
2019-05-25T14:48:52.474Z,1.35
2019-05-25T14:51:23.134Z,1.20
2019-05-25T14:53:53.825Z,1.20
2019-05-25T14:56:24.539Z,1.25
2019-05-25T14:58:55.146Z,1.50
2019-05-25T15:01:25.866Z,1.40
2019-05-25T15:03:56.644Z,1.17
2019-05-25T15:06:27.285Z,1.70
2019-05-25T15:08:57.919Z,1.65
2019-05-25T15:11:28.624Z,1.40
2019-05-25T15:13:59.175Z,1.10
2019-05-25T15:16:32.132Z,1.15
2019-05-25T15:19:03.778Z,1.10
2019-05-25T15:21:34.561Z,1.12
2019-05-25T15:24:05.500Z,1.15
2019-05-25T15:29:05.899Z,1.30
2019-05-25T15:31:36.558Z,1.30
2019-05-25T15:34:07.469Z,1.05
2019-05-25T15:39:08.940Z,1.10
2019-05-25T15:41:39.812Z,1.00
2019-05-25T15:44:13.175Z,0.98
2019-05-25T15:46:44.062Z,1.00
2019-05-25T15:51:44.381Z,1.12
2019-05-25T15:54:15.105Z,1.07
2019-05-25T15:56:45.795Z,1.00
2019-05-25T15:59:16.420Z,1.05
2019-05-25T16:01:46.990Z,1.40
2019-05-25T16:04:17.572Z,1.20
2019-05-25T16:06:48.190Z,1.25
2019-05-25T16:09:18.803Z,1.10
2019-05-25T16:11:49.545Z,1.15
2019-05-25T16:14:20.104Z,1.10
2019-05-25T16:16:50.690Z,1.22
2019-05-25T16:19:23.519Z,1.47
2019-05-25T16:21:54.259Z,1.50
2019-05-25T16:24:24.883Z,1.50
2019-05-25T16:26:57.247Z,1.30
2019-05-25T16:29:28.003Z,1.27
2019-05-25T16:31:59.724Z,1.20
2019-05-25T16:34:30.395Z,1.20
2019-05-25T16:37:01.176Z,1.40
2019-05-25T16:39:33.708Z,1.40
2019-05-25T16:44:33.907Z,1.30
2019-05-25T16:47:05.088Z,1.30
2019-05-25T16:49:35.738Z,1.30
2019-05-25T16:52:06.350Z,1.30
2019-05-25T16:54:37.339Z,1.05
2019-05-25T16:59:37.725Z,1.30
2019-05-25T17:02:08.817Z,1.70
2019-05-25T17:04:39.414Z,1.50
2019-05-25T17:07:09.926Z,1.70
2019-05-25T17:09:40.578Z,1.50
2019-05-25T17:12:11.585Z,1.35
2019-05-25T17:14:42.204Z,1.25
2019-05-25T17:17:15.903Z,1.72
2019-05-25T17:19:51.059Z,1.87
2019-05-25T17:22:21.751Z,2.22
2019-05-25T17:24:52.434Z,1.95
2019-05-25T17:27:23.090Z,1.72
2019-05-25T17:29:53.692Z,1.25
2019-05-25T17:32:24.653Z,1.45
2019-05-25T17:34:55.312Z,1.60
2019-05-25T17:37:26.116Z,1.60
2019-05-25T17:39:56.978Z,1.90
2019-05-25T17:42:27.681Z,1.42
2019-05-25T17:44:59.414Z,1.45
2019-05-25T17:47:30.062Z,1.77
2019-05-25T17:50:00.688Z,1.82
2019-05-25T17:52:31.539Z,1.30
2019-05-25T17:55:02.252Z,1.65
2019-05-25T17:57:33.002Z,1.60
2019-05-25T18:00:03.780Z,1.60
2019-05-25T18:05:04.178Z,1.30
2019-05-25T18:07:34.981Z,1.42
2019-05-25T18:10:06.309Z,1.45
2019-05-25T18:12:36.927Z,1.70
2019-05-25T18:15:07.932Z,1.45
2019-05-25T18:17:38.484Z,1.30
2019-05-25T18:20:09.497Z,1.50
2019-05-25T18:22:41.096Z,1.62
2019-05-25T18:25:11.913Z,1.40
2019-05-25T18:27:42.657Z,1.42
2019-05-25T18:30:13.546Z,1.82
2019-05-25T18:32:44.230Z,1.80
2019-05-25T18:35:14.994Z,1.37
2019-05-25T18:37:46.118Z,1.42
2019-05-25T18:40:16.893Z,1.50
2019-05-25T18:42:47.839Z,1.40
2019-05-25T18:45:18.949Z,1.57
2019-05-25T18:50:19.271Z,1.60
2019-05-25T18:52:49.878Z,1.60
2019-05-25T18:55:20.940Z,1.80
2019-05-25T19:00:21.502Z,1.82
2019-05-25T19:02:53.211Z,1.70
2019-05-25T19:05:23.936Z,1.60
2019-05-25T19:07:55.715Z,2.02
2019-05-25T19:10:26.539Z,2.72
2019-05-25T19:12:57.093Z,2.70
2019-05-25T19:15:27.847Z,1.87
2019-05-25T19:17:58.508Z,2.33
2019-05-25T19:20:29.283Z,2.40
2019-05-25T19:22:59.916Z,2.45
2019-05-25T19:25:30.690Z,2.00
2019-05-25T19:28:01.272Z,2.37
2019-05-25T19:30:31.914Z,2.47
2019-05-25T19:33:02.537Z,2.10
2019-05-25T19:35:33.132Z,2.42
2019-05-25T19:38:04.393Z,2.85
2019-05-25T19:40:35.203Z,2.85
2019-05-25T19:43:05.816Z,2.70
2019-05-25T19:45:36.518Z,2.65
2019-05-25T19:48:08.255Z,2.80
2019-05-25T19:50:38.918Z,2.50
2019-05-25T19:53:09.609Z,2.45
2019-05-25T19:55:41.780Z,2.00
2019-05-25T19:58:12.479Z,1.87
2019-05-25T20:00:53.092Z,2.00
2019-05-25T20:03:24.314Z,1.87
2019-05-25T20:05:55.982Z,1.82
2019-05-25T20:08:26.555Z,1.92
2019-05-25T20:10:57.218Z,2.08
2019-05-25T20:13:27.903Z,2.00
2019-05-25T20:15:58.544Z,1.90
2019-05-25T20:18:32.071Z,2.77
2019-05-25T20:21:02.781Z,3.75
2019-05-25T20:23:35.833Z,2.92
2019-05-25T20:26:06.528Z,4.78
2019-05-25T20:28:37.081Z,3.10
2019-05-25T20:31:09.421Z,3.37
2019-05-25T20:33:39.976Z,2.42
2019-05-25T20:36:11.726Z,2.35
2019-05-25T20:38:43.823Z,2.42
2019-05-25T20:41:14.338Z,2.05
2019-05-25T20:43:44.980Z,2.62
2019-05-25T20:46:15.502Z,2.45
2019-05-25T20:48:46.073Z,3.02
2019-05-25T20:51:16.704Z,2.47
2019-05-25T20:53:47.341Z,2.90
2019-05-25T20:56:17.952Z,3.45
2019-05-25T20:58:48.542Z,2.58
2019-05-25T21:01:19.190Z,2.83
2019-05-25T21:03:49.788Z,2.60
2019-05-25T21:06:20.317Z,2.33
2019-05-25T21:08:50.951Z,2.30
2019-05-25T21:11:21.638Z,2.72
2019-05-25T21:13:52.382Z,2.95
2019-05-25T21:16:22.987Z,2.95
2019-05-25T21:18:53.561Z,2.90
2019-05-25T21:21:24.704Z,3.05
2019-05-25T21:26:25.362Z,3.22
2019-05-25T21:28:56.228Z,3.22
2019-05-25T21:31:27.482Z,2.90
2019-05-25T21:36:28.725Z,3.27
2019-05-25T21:38:59.365Z,2.83
2019-05-25T21:41:30.200Z,3.27
2019-05-25T21:44:00.920Z,3.33
2019-05-25T21:46:31.610Z,3.42
2019-05-25T21:49:02.261Z,3.62
2019-05-25T21:51:32.926Z,3.10
2019-05-25T21:54:04.622Z,3.25
2019-05-25T21:56:35.151Z,3.12
2019-05-25T21:59:05.694Z,2.95
2019-05-25T22:01:36.364Z,3.30
2019-05-25T22:04:06.886Z,3.25
2019-05-25T22:06:37.442Z,3.02
2019-05-25T22:09:08.824Z,2.98
2019-05-25T22:11:40.453Z,3.12
2019-05-25T22:14:13.055Z,2.87
2019-05-25T22:16:43.744Z,2.77
2019-05-25T22:19:14.324Z,3.00
2019-05-25T22:21:46.562Z,3.27
2019-05-25T22:24:17.044Z,2.80
2019-05-25T22:26:47.684Z,3.22
2019-05-25T22:29:18.192Z,2.52
2019-05-25T22:31:48.872Z,2.75
2019-05-25T22:34:19.459Z,2.75
2019-05-25T22:36:50.066Z,2.67
2019-05-25T22:39:20.678Z,2.70
2019-05-25T22:41:51.446Z,2.62
2019-05-25T22:44:22.119Z,2.33
2019-05-25T22:46:52.635Z,2.37
2019-05-25T22:49:26.234Z,2.65
2019-05-25T22:51:56.857Z,2.05
2019-05-25T22:54:27.429Z,2.80
2019-05-25T22:56:58.034Z,2.55
2019-05-25T22:59:31.774Z,2.40
2019-05-25T23:02:03.787Z,2.60
2019-05-25T23:04:34.658Z,4.97
2019-05-25T23:07:05.309Z,2.92
2019-05-25T23:09:36.007Z,2.65
2019-05-25T23:12:06.606Z,2.92
2019-05-25T23:14:37.244Z,2.62
2019-05-25T23:17:08.147Z,3.22
2019-05-25T23:19:38.779Z,3.55
2019-05-25T23:22:09.414Z,2.92
2019-05-25T23:24:40.081Z,2.90
2019-05-25T23:27:10.858Z,2.80
2019-05-25T23:29:41.519Z,2.50
2019-05-25T23:32:13.050Z,2.75
2019-05-25T23:34:43.667Z,2.35
2019-05-25T23:37:15.246Z,2.30
2019-05-25T23:39:46.106Z,2.70
2019-05-25T23:42:17.092Z,2.80
2019-05-25T23:44:47.822Z,2.55
2019-05-25T23:47:18.378Z,2.92
2019-05-25T23:49:49.129Z,2.40
2019-05-25T23:52:19.840Z,2.80
2019-05-25T23:54:50.529Z,2.67
2019-05-25T23:57:23.111Z,2.90
2019-05-25T23:59:55.761Z,2.77
